Airport View

Enter AWOS ICAO identifier for current METAR.

ex. KFNL

KCNO 101553Z 00000KT 10SM CLR 23/14 A2997 RMK AO2 SLP143 T02280139 $

10 Aug 2020 16:14

Phone: 909-393-5823

Other Area AWOS: KAJO - KONT - KRAL - KPOC

TAF KONT 101128Z 1012/1118 VRB04KT P6SM SKC FM102100 26011G18KT P6SM SKC FM110500 VRB04KT P6SM SKC